createdAt,value
2019-03-06T00:02:01.773Z,6.10
2019-03-06T00:07:05.848Z,6.00
2019-03-06T00:12:09.470Z,6.00
2019-03-06T00:17:13.694Z,6.00
2019-03-06T00:22:17.463Z,5.90
2019-03-06T00:27:21.202Z,5.70
2019-03-06T00:32:24.848Z,5.60
2019-03-06T00:37:28.529Z,5.60
2019-03-06T00:42:33.830Z,5.50
2019-03-06T00:47:37.485Z,5.60
2019-03-06T00:52:41.165Z,5.70
2019-03-06T00:57:44.773Z,5.90
2019-03-06T01:02:48.479Z,5.80
2019-03-06T01:07:52.164Z,5.80
2019-03-06T01:12:56.620Z,5.70
2019-03-06T01:18:00.347Z,5.60
2019-03-06T01:23:05.788Z,5.50
2019-03-06T01:28:09.710Z,5.40
2019-03-06T01:33:23.992Z,5.50
2019-03-06T01:38:44.394Z,5.40
2019-03-06T01:43:52.666Z,5.40
2019-03-06T01:48:56.298Z,5.20
2019-03-06T01:53:59.918Z,5.30
2019-03-06T01:59:03.755Z,5.40
2019-03-06T02:04:07.547Z,5.50
2019-03-06T02:09:11.826Z,5.60
2019-03-06T02:14:15.467Z,5.90
2019-03-06T02:19:19.298Z,5.90
2019-03-06T02:24:23.747Z,6.10
2019-03-06T02:29:27.444Z,5.90
2019-03-06T02:34:31.201Z,6.00
2019-03-06T02:39:34.853Z,5.90
2019-03-06T02:44:40.135Z,5.80
2019-03-06T02:49:44.000Z,5.70
2019-03-06T02:54:47.695Z,5.50
2019-03-06T02:59:53.031Z,5.20
2019-03-06T03:05:04.074Z,5.20
2019-03-06T03:10:10.121Z,4.90
2019-03-06T03:15:13.961Z,4.90
2019-03-06T03:20:17.649Z,4.80
2019-03-06T03:25:22.435Z,4.50
2019-03-06T03:30:27.673Z,4.40
2019-03-06T03:35:31.291Z,4.20
2019-03-06T03:40:34.970Z,4.10
2019-03-06T03:45:38.607Z,4.20
2019-03-06T03:50:42.648Z,4.20
2019-03-06T03:55:46.479Z,4.10
2019-03-06T04:00:50.182Z,4.40
2019-03-06T04:05:53.812Z,4.40
2019-03-06T04:10:57.846Z,4.50
2019-03-06T04:16:01.463Z,4.50
2019-03-06T04:21:05.231Z,4.40
2019-03-06T04:26:08.945Z,4.50
2019-03-06T04:31:12.569Z,4.20
2019-03-06T04:36:16.181Z,4.10
2019-03-06T04:41:19.810Z,3.90
2019-03-06T04:46:25.085Z,3.90
2019-03-06T04:51:29.069Z,3.70
2019-03-06T04:56:32.721Z,3.80
2019-03-06T05:01:36.317Z,3.80
2019-03-06T05:06:40.168Z,3.70
2019-03-06T05:11:44.075Z,3.60
2019-03-06T05:16:58.597Z,3.40
2019-03-06T05:22:02.224Z,3.50
2019-03-06T05:27:05.897Z,3.00
2019-03-06T05:32:35.992Z,2.70
2019-03-06T05:37:52.234Z,2.80
2019-03-06T05:42:55.956Z,3.00
2019-03-06T05:47:59.666Z,3.00
2019-03-06T05:53:03.353Z,3.10
2019-03-06T05:58:07.122Z,3.00
2019-03-06T06:03:10.919Z,2.80
2019-03-06T06:08:14.522Z,2.80
2019-03-06T06:13:18.211Z,3.00
2019-03-06T06:18:21.823Z,3.10
2019-03-06T06:23:45.074Z,3.20
2019-03-06T06:28:48.710Z,3.20
2019-03-06T06:33:52.343Z,2.80
2019-03-06T06:38:56.056Z,3.00
2019-03-06T06:43:59.649Z,3.00
2019-03-06T06:49:03.641Z,3.10
2019-03-06T06:54:37.762Z,3.10
2019-03-06T06:59:59.338Z,3.40
2019-03-06T07:05:15.318Z,3.70
2019-03-06T07:10:36.865Z,4.00
2019-03-06T07:15:57.926Z,4.30
2019-03-06T07:21:06.183Z,4.50
2019-03-06T07:26:28.047Z,4.70
2019-03-06T07:31:33.575Z,4.60
2019-03-06T07:36:44.884Z,4.60
2019-03-06T07:41:50.202Z,4.20
2019-03-06T07:47:01.746Z,4.30
2019-03-06T07:52:10.005Z,4.20
2019-03-06T07:57:15.378Z,4.40
2019-03-06T08:02:28.057Z,4.40
2019-03-06T08:07:31.755Z,4.70
2019-03-06T08:12:37.038Z,5.10
2019-03-06T08:18:00.508Z,5.00
2019-03-06T08:23:22.199Z,5.90
2019-03-06T08:28:25.954Z,6.20
2019-03-06T08:33:29.899Z,6.60
2019-03-06T08:38:33.674Z,6.50
2019-03-06T08:43:37.367Z,6.90
2019-03-06T08:48:59.081Z,6.80
2019-03-06T08:54:04.527Z,7.50
2019-03-06T08:59:27.658Z,8.10
2019-03-06T09:04:42.424Z,9.40
2019-03-06T09:09:50.818Z,9.30
2019-03-06T09:14:56.202Z,9.90
2019-03-06T09:20:10.117Z,9.80
2019-03-06T09:25:31.622Z,9.70
2019-03-06T09:30:39.737Z,9.90
2019-03-06T09:35:47.636Z,8.60
2019-03-06T09:40:55.892Z,7.20
2019-03-06T09:46:09.964Z,8.70
2019-03-06T09:51:15.245Z,8.80
2019-03-06T09:56:29.539Z,9.30
2019-03-06T10:01:49.481Z,9.60
2019-03-06T10:06:54.835Z,9.50
2019-03-06T10:12:06.164Z,9.20
2019-03-06T10:17:17.742Z,8.70
2019-03-06T10:22:21.577Z,8.80
2019-03-06T10:27:26.183Z,8.80
2019-03-06T10:32:29.937Z,9.10
2019-03-06T10:37:33.718Z,9.30
2019-03-06T10:42:37.418Z,8.70
2019-03-06T10:47:42.211Z,8.30
2019-03-06T10:52:46.328Z,7.80
2019-03-06T10:57:50.041Z,8.10
2019-03-06T11:02:53.876Z,8.40
2019-03-06T11:07:58.130Z,7.90
2019-03-06T11:13:02.603Z,8.30
2019-03-06T11:18:06.397Z,8.20
2019-03-06T11:23:11.771Z,8.70
2019-03-06T11:28:15.630Z,9.10
2019-03-06T11:33:20.842Z,9.60
2019-03-06T11:38:25.401Z,9.40
2019-03-06T11:43:29.266Z,9.70
2019-03-06T11:48:33.087Z,10.30
2019-03-06T11:53:44.088Z,10.90
2019-03-06T11:58:52.000Z,11.40
2019-03-06T12:03:57.052Z,12.40
2019-03-06T12:14:28.680Z,12.40
2019-03-06T12:19:32.606Z,11.60
2019-03-06T12:24:36.678Z,11.90
2019-03-06T12:29:40.377Z,12.20
2019-03-06T12:34:44.551Z,12.60
2019-03-06T12:39:48.300Z,12.40
2019-03-06T12:44:51.915Z,12.40
2019-03-06T12:49:55.675Z,12.50
2019-03-06T12:55:12.371Z,12.70
2019-03-06T13:00:18.904Z,13.50
2019-03-06T13:05:24.564Z,13.70
2019-03-06T13:10:28.288Z,12.70
2019-03-06T13:15:32.911Z,12.60
2019-03-06T13:20:36.675Z,12.50
2019-03-06T13:25:40.531Z,12.80
2019-03-06T13:30:44.931Z,12.50
2019-03-06T13:35:49.894Z,12.50
2019-03-06T13:40:53.512Z,12.40
2019-03-06T13:45:57.274Z,12.80
2019-03-06T13:51:02.586Z,12.20
2019-03-06T13:56:07.222Z,11.80
2019-03-06T14:01:12.494Z,12.10
2019-03-06T14:06:16.574Z,12.00
2019-03-06T14:11:20.436Z,11.80
2019-03-06T14:16:24.514Z,11.50
2019-03-06T14:21:28.267Z,11.40
2019-03-06T14:26:32.056Z,11.30
2019-03-06T14:31:35.694Z,11.70
2019-03-06T14:36:39.638Z,11.80
2019-03-06T14:41:43.267Z,12.00
2019-03-06T14:46:47.359Z,12.00
2019-03-06T14:51:50.977Z,12.30
2019-03-06T14:56:54.699Z,12.20
2019-03-06T15:01:58.338Z,12.20
2019-03-06T15:07:02.163Z,11.90
2019-03-06T15:12:06.117Z,12.00
2019-03-06T15:17:10.737Z,11.90
2019-03-06T15:22:14.440Z,12.40
2019-03-06T15:27:18.229Z,12.10
2019-03-06T15:32:21.892Z,11.80
2019-03-06T15:37:25.646Z,12.20
2019-03-06T15:42:29.826Z,12.60
2019-03-06T15:47:34.012Z,12.90
2019-03-06T15:52:37.702Z,13.00
2019-03-06T15:57:41.546Z,13.30
2019-03-06T16:02:45.358Z,13.50
2019-03-06T16:07:49.254Z,13.80
2019-03-06T16:12:52.944Z,14.10
2019-03-06T16:17:59.159Z,13.60
2019-03-06T16:23:03.103Z,12.30
2019-03-06T16:28:06.798Z,12.70
2019-03-06T16:33:11.538Z,12.70
2019-03-06T16:38:15.335Z,13.00
2019-03-06T16:43:19.642Z,13.20
2019-03-06T16:48:23.368Z,13.20
2019-03-06T16:53:27.071Z,13.30
2019-03-06T16:58:30.927Z,13.00
2019-03-06T17:03:34.706Z,13.00
2019-03-06T17:08:39.052Z,13.00
2019-03-06T17:13:42.750Z,12.90
2019-03-06T17:24:03.479Z,12.80
2019-03-06T17:29:09.723Z,12.80
2019-03-06T17:34:14.760Z,12.50
2019-03-06T17:39:18.477Z,12.40
2019-03-06T17:44:23.503Z,12.30
2019-03-06T17:49:28.310Z,12.30
2019-03-06T17:54:31.966Z,12.40
2019-03-06T17:59:36.339Z,12.20
2019-03-06T18:04:40.465Z,12.20
2019-03-06T18:09:44.048Z,11.90
2019-03-06T18:14:50.072Z,12.00
2019-03-06T18:19:53.850Z,12.10
2019-03-06T18:24:58.123Z,11.70
2019-03-06T18:30:01.758Z,11.40
2019-03-06T18:35:07.794Z,11.40
2019-03-06T18:40:17.135Z,11.20
2019-03-06T18:45:21.422Z,11.30
2019-03-06T18:50:25.233Z,11.20
2019-03-06T19:01:13.753Z,11.00
2019-03-06T19:06:17.579Z,10.40
2019-03-06T19:11:21.380Z,10.30
2019-03-06T19:16:25.070Z,10.40
2019-03-06T19:21:28.851Z,10.30
2019-03-06T19:26:32.503Z,10.10
2019-03-06T19:31:36.333Z,10.00
2019-03-06T19:36:39.947Z,9.80
2019-03-06T19:41:43.550Z,10.20
2019-03-06T19:46:47.210Z,10.20
2019-03-06T19:51:51.746Z,10.10
2019-03-06T19:56:55.570Z,10.10
2019-03-06T20:01:59.401Z,10.20
2019-03-06T20:07:03.471Z,10.20
2019-03-06T20:12:08.586Z,10.30
2019-03-06T20:17:12.519Z,10.30
2019-03-06T20:22:16.363Z,10.00
2019-03-06T20:27:20.062Z,10.20
2019-03-06T20:32:23.902Z,10.20
2019-03-06T20:37:27.621Z,10.20
2019-03-06T20:42:32.526Z,10.10
2019-03-06T20:47:36.330Z,10.10
2019-03-06T20:52:40.219Z,10.00
2019-03-06T20:57:43.897Z,10.00
2019-03-06T21:02:47.764Z,9.80
2019-03-06T21:07:51.405Z,9.70
2019-03-06T21:12:55.051Z,9.70
2019-03-06T21:17:58.655Z,9.30
2019-03-06T21:23:02.344Z,9.00
2019-03-06T21:28:07.435Z,9.10
2019-03-06T21:33:11.318Z,9.20
2019-03-06T21:38:15.028Z,9.10
2019-03-06T21:43:18.666Z,8.40
2019-03-06T21:48:22.345Z,8.80
2019-03-06T21:53:26.451Z,8.20
2019-03-06T21:58:30.071Z,8.50
2019-03-06T22:03:33.772Z,8.60
2019-03-06T22:08:37.420Z,8.70
2019-03-06T22:13:41.039Z,8.50
2019-03-06T22:18:45.542Z,8.40
2019-03-06T22:23:49.326Z,8.30
2019-03-06T22:28:53.068Z,8.40
2019-03-06T22:33:56.748Z,8.20
2019-03-06T22:39:00.454Z,8.20
2019-03-06T22:44:04.590Z,8.10
2019-03-06T22:49:08.254Z,7.80
2019-03-06T22:54:11.862Z,7.80
2019-03-06T22:59:15.564Z,7.70
2019-03-06T23:04:19.379Z,7.70
2019-03-06T23:09:23.137Z,7.00
2019-03-06T23:14:26.846Z,7.10
2019-03-06T23:19:30.554Z,7.30
2019-03-06T23:24:34.246Z,7.30
2019-03-06T23:29:40.338Z,7.10
2019-03-06T23:34:44.067Z,6.90
2019-03-06T23:39:47.759Z,7.30
2019-03-06T23:44:51.784Z,7.50
2019-03-06T23:49:55.443Z,7.60
2019-03-06T23:54:59.195Z,7.60
